South Amboy, New Jersey
Current Conditions -  °F | °C
As of 12:35 PM on Thursday 23 Oct 2014 (Local Time) from KLDJ Reporting Station
Light Rain Light Rain  
Wind Chill: 56°   Ceiling: 2200
Heat Index: 56°   Visibility: 5mi
Dew Point: 53°   Wind: 10mph
Humidity: 89%   Direction: 340°NNW
Pressure: 29.74"   Gusts: NA
Location:  40.48°N, 74.28°W
Report Text: KLDJ 231635Z AUTO 34009KT 5SM -RA SCT014 BKN022 OVC034 13/12 A2974 RMK AO2 P0005 T01340116
Loading
Personal Weather Stations






























Interactive Weather Map
Tropical Storm Tracking
New forecast layout! Learn more

10-Day Weather Forecast

Advertisements
Track Severe Weather on mobile